Terminal Aerodrome Forecast
Issued by NWS

Home | Current Version | Previous Version | Graphics & Text | Print | Product List | Glossary On
Versions: 1 2 3 4 5 6 7 8 9 10 11 12 13 14 15 16
285
FTUS43 KTOP 221717 AAA
TAFFOE
TAF AMD
KFOE 221717Z 2217/2312 18012G20KT P6SM FEW200
     FM230600 36010KT P6SM VCTS BKN050CB
     FM230900 01008KT P6SM VCTS BKN030CB=

USA.gov is the U.S. government's official web portal to all federal, state and local government web resources and services.